Auburn, West Virginia
Current Conditions -  °F | °C
As of 12:15 AM on Sunday 21 Dec 2014 (Local Time) from KW22 Reporting Station
Unknown Precip Unknown Precip  
Wind Chill: 30°   Ceiling: 2600
Heat Index: 30°   Visibility: 9mi
Dew Point: 25°   Wind: 0mph
Humidity: 80%   Direction: NA
Pressure: 30.23"   Gusts: NA
Location:  39.1°N, 80.86°W
Report Text: KW22 210515Z AUTO 00000KT 9SM -UP BKN026 M01/M04 A3023 RMK AO2
Loading
Personal Weather Stations






























Interactive Weather Map New forecast layout! Learn more

10-Day Weather Forecast

Advertisements
Track Severe Weather on mobile